Time;durP1;ratioP1;P1;durP2;ratioP2;P2;SDS_P1;SDS_P2;PMS_P1;PMS_P2;Temp;Humidity;BMP_temperature;BMP_pressure;BME280_temperature;BME280_humidity;BME280_pressure;Samples;Min_cycle;Max_cycle;Signal;HPM_P1;HPM_P2
2023/01/25 00:00:52;;;;;;;22.23;13.23;;;;;;;;;;6263201;28;20045;-74
2023/01/25 00:03:55;;;;;;;104.45;51.97;;;;;;;;;;6265704;28;20144;-74
2023/01/25 00:06:57;;;;;;;73.80;37.55;;;;;;;;;;6262775;28;20360;-74
2023/01/25 00:09:58;;;;;;;80.50;41.70;;;;;;;;;;6264988;28;20098;-74
2023/01/25 00:13:00;;;;;;;48.08;26.13;;;;;;;;;;6264028;28;20053;-74
2023/01/25 00:16:03;;;;;;;32.97;18.27;;;;;;;;;;6265150;28;20094;-70
2023/01/25 00:19:06;;;;;;;78.65;40.53;;;;;;;;;;6263354;28;20100;-74
2023/01/25 00:22:07;;;;;;;31.70;18.05;;;;;;;;;;6263717;28;20061;-75
2023/01/25 00:25:10;;;;;;;23.23;14.10;;;;;;;;;;6264169;28;21077;-73
2023/01/25 00:28:11;;;;;;;18.58;12.40;;;;;;;;;;6264966;28;20052;-73
2023/01/25 00:31:17;;;;;;;23.33;12.70;;;;;;;;;;6264312;28;20071;-73
2023/01/25 00:34:50;;;;;;;21.40;12.80;;;;;;;;;;6264828;28;20053;-71
2023/01/25 00:37:53;;;;;;;20.83;13.07;;;;;;;;;;6191907;28;20054;-70
2023/01/25 00:40:54;;;;;;;20.23;13.07;;;;;;;;;;6192513;28;20121;-72
2023/01/25 00:43:56;;;;;;;20.67;13.13;;;;;;;;;;6191643;28;20070;-73
2023/01/25 00:46:58;;;;;;;19.13;13.50;;;;;;;;;;6191290;28;20153;-73
2023/01/25 00:50:01;;;;;;;20.10;12.98;;;;;;;;;;6188335;28;20346;-73
2023/01/25 00:53:03;;;;;;;23.77;13.30;;;;;;;;;;6194633;28;20342;-73
2023/01/25 00:56:05;;;;;;;20.15;12.15;;;;;;;;;;6193769;28;20327;-74
2023/01/25 00:59:07;;;;;;;20.40;12.57;;;;;;;;;;6190032;28;20055;-75
2023/01/25 01:02:08;;;;;;;21.83;14.85;;;;;;;;;;6187707;28;20058;-72
2023/01/25 01:05:11;;;;;;;21.65;12.38;;;;;;;;;;6190367;28;20070;-78
2023/01/25 01:08:13;;;;;;;19.42;12.02;;;;;;;;;;6187710;28;20086;-74
2023/01/25 01:11:15;;;;;;;20.70;12.55;;;;;;;;;;6215668;28;20057;-75
2023/01/25 01:14:17;;;;;;;22.00;12.77;;;;;;;;;;6268799;28;20138;-74
2023/01/25 01:17:18;;;;;;;19.75;12.27;;;;;;;;;;6262033;28;20383;-70
2023/01/25 01:20:21;;;;;;;20.50;13.02;;;;;;;;;;6268836;28;20049;-75
2023/01/25 01:23:23;;;;;;;19.48;11.80;;;;;;;;;;6264021;28;20037;-72
2023/01/25 01:26:24;;;;;;;23.52;12.68;;;;;;;;;;6263927;28;20049;-75
2023/01/25 01:29:26;;;;;;;21.05;12.60;;;;;;;;;;6267202;28;20098;-74
2023/01/25 01:32:28;;;;;;;18.92;12.07;;;;;;;;;;6265274;28;20268;-74
2023/01/25 01:35:32;;;;;;;19.58;11.48;;;;;;;;;;6267334;28;20041;-75
2023/01/25 01:38:33;;;;;;;19.33;12.10;;;;;;;;;;6265745;28;20182;-75
2023/01/25 01:41:35;;;;;;;20.58;12.27;;;;;;;;;;6265016;28;20060;-71
2023/01/25 01:44:47;;;;;;;18.60;12.05;;;;;;;;;;6271279;28;20056;-74
2023/01/25 01:47:49;;;;;;;21.15;13.30;;;;;;;;;;6267380;28;20053;-75
2023/01/25 01:50:53;;;;;;;18.42;12.05;;;;;;;;;;6265308;28;20691;-73
2023/01/25 01:53:58;;;;;;;22.33;11.95;;;;;;;;;;6264323;28;20060;-77
2023/01/25 01:57:02;;;;;;;16.80;11.65;;;;;;;;;;6265290;28;20099;-75
2023/01/25 02:00:06;;;;;;;21.38;13.05;;;;;;;;;;6264949;28;20061;-74
2023/01/25 02:03:09;;;;;;;18.95;12.20;;;;;;;;;;6265996;28;20132;-75
2023/01/25 02:06:14;;;;;;;19.17;12.43;;;;;;;;;;6262382;28;20057;-75
2023/01/25 02:09:18;;;;;;;21.15;13.35;;;;;;;;;;6266374;28;20061;-72
2023/01/25 02:12:21;;;;;;;21.58;13.55;;;;;;;;;;6263197;28;20229;-69
2023/01/25 02:15:22;;;;;;;21.92;13.70;;;;;;;;;;6266040;28;20096;-76
2023/01/25 02:18:24;;;;;;;21.67;14.38;;;;;;;;;;6267764;28;20076;-73
2023/01/25 02:21:32;;;;;;;19.65;13.88;;;;;;;;;;6263999;28;20049;-72
2023/01/25 02:24:35;;;;;;;21.58;13.63;;;;;;;;;;6265113;28;20049;-75
2023/01/25 02:27:40;;;;;;;23.25;14.18;;;;;;;;;;6264044;28;20053;-74
2023/01/25 02:30:43;;;;;;;23.15;13.60;;;;;;;;;;6266477;28;20082;-75
2023/01/25 02:33:45;;;;;;;24.55;15.38;;;;;;;;;;6263650;28;20329;-75
2023/01/25 02:36:46;;;;;;;21.67;13.93;;;;;;;;;;6265104;28;20053;-75
2023/01/25 02:39:48;;;;;;;23.00;14.50;;;;;;;;;;6262636;28;20329;-71
2023/01/25 02:42:51;;;;;;;24.65;15.85;;;;;;;;;;6263504;28;20060;-75
2023/01/25 02:45:59;;;;;;;25.23;15.23;;;;;;;;;;6263264;28;20049;-75
2023/01/25 02:49:01;;;;;;;23.92;15.15;;;;;;;;;;6262362;28;20095;-75
2023/01/25 02:52:04;;;;;;;23.60;14.73;;;;;;;;;;6261748;28;20040;-73
2023/01/25 02:55:07;;;;;;;22.05;15.18;;;;;;;;;;6262916;28;20399;-73
2023/01/25 02:58:10;;;;;;;23.83;15.88;;;;;;;;;;6265236;28;20040;-74
2023/01/25 03:01:12;;;;;;;28.38;15.93;;;;;;;;;;6260621;28;20359;-74
2023/01/25 03:04:14;;;;;;;24.55;15.95;;;;;;;;;;6267898;28;20352;-74
2023/01/25 03:07:16;;;;;;;25.25;15.25;;;;;;;;;;6262001;28;20047;-75
2023/01/25 03:10:18;;;;;;;23.00;15.40;;;;;;;;;;6265773;28;20057;-70
2023/01/25 03:13:21;;;;;;;23.50;15.05;;;;;;;;;;6265917;28;20250;-74
2023/01/25 03:16:22;;;;;;;24.77;15.65;;;;;;;;;;6263229;28;20053;-75
2023/01/25 03:19:24;;;;;;;25.45;15.38;;;;;;;;;;6267974;28;20238;-73
2023/01/25 03:22:26;;;;;;;23.38;15.07;;;;;;;;;;6262503;28;20060;-75
2023/01/25 03:25:27;;;;;;;23.60;14.90;;;;;;;;;;6262999;28;20114;-75
2023/01/25 03:28:30;;;;;;;25.42;14.50;;;;;;;;;;6261539;28;20361;-74
2023/01/25 03:31:32;;;;;;;22.95;14.75;;;;;;;;;;6261889;28;20051;-74
2023/01/25 03:34:34;;;;;;;22.27;14.70;;;;;;;;;;6262448;28;20329;-74
2023/01/25 03:37:35;;;;;;;24.77;15.38;;;;;;;;;;6261066;28;20071;-74
2023/01/25 03:40:37;;;;;;;22.30;15.48;;;;;;;;;;6261021;28;21324;-74
2023/01/25 03:43:40;;;;;;;20.75;13.93;;;;;;;;;;6262515;28;20288;-74
2023/01/25 03:46:42;;;;;;;21.52;14.57;;;;;;;;;;6261056;28;20053;-73
2023/01/25 03:49:44;;;;;;;21.55;14.93;;;;;;;;;;6261308;28;20352;-74
2023/01/25 03:53:28;;;;;;;24.65;14.85;;;;;;;;;;6263003;28;20145;-73
2023/01/25 03:56:30;;;;;;;23.88;14.95;;;;;;;;;;6263087;28;20134;-70
2023/01/25 03:59:33;;;;;;;22.92;14.75;;;;;;;;;;6260962;28;20092;-74
2023/01/25 04:02:34;;;;;;;22.80;14.25;;;;;;;;;;6262863;28;20106;-74
2023/01/25 04:05:36;;;;;;;23.67;14.57;;;;;;;;;;6262597;28;20059;-73
2023/01/25 04:08:37;;;;;;;22.60;14.48;;;;;;;;;;6263872;28;20053;-74
2023/01/25 04:11:39;;;;;;;21.00;14.07;;;;;;;;;;6262960;28;20057;-74
2023/01/25 04:14:42;;;;;;;20.95;13.80;;;;;;;;;;6259902;28;20368;-74
2023/01/25 04:17:44;;;;;;;20.23;13.73;;;;;;;;;;6262294;28;20068;-73
2023/01/25 04:20:46;;;;;;;21.65;14.65;;;;;;;;;;6262548;28;20045;-74
2023/01/25 04:23:47;;;;;;;24.50;15.48;;;;;;;;;;6261164;28;20065;-74
2023/01/25 04:26:49;;;;;;;22.73;15.10;;;;;;;;;;6261525;28;20057;-76
2023/01/25 04:29:52;;;;;;;24.50;14.73;;;;;;;;;;6263027;28;20098;-69
2023/01/25 04:32:54;;;;;;;26.65;16.40;;;;;;;;;;6260671;28;20357;-74
2023/01/25 04:35:55;;;;;;;24.75;15.38;;;;;;;;;;6259888;28;20103;-71
2023/01/25 04:38:57;;;;;;;25.60;16.48;;;;;;;;;;6263257;28;20253;-75
2023/01/25 04:41:59;;;;;;;27.60;17.42;;;;;;;;;;6261398;28;20275;-74
2023/01/25 04:45:02;;;;;;;25.00;15.65;;;;;;;;;;6264215;28;20052;-72
2023/01/25 04:48:08;;;;;;;25.30;16.23;;;;;;;;;;6262426;28;20045;-75
2023/01/25 04:51:10;;;;;;;25.25;16.58;;;;;;;;;;6263222;28;20063;-74
2023/01/25 04:54:12;;;;;;;26.98;16.63;;;;;;;;;;6260489;28;20056;-74
2023/01/25 04:57:13;;;;;;;30.13;18.10;;;;;;;;;;6260215;28;20055;-74
2023/01/25 05:00:18;;;;;;;26.67;18.10;;;;;;;;;;6261200;28;20388;-75
2023/01/25 05:03:19;;;;;;;28.67;18.45;;;;;;;;;;6259951;28;20087;-74
2023/01/25 05:06:21;;;;;;;26.38;16.70;;;;;;;;;;6257405;28;20332;-74
2023/01/25 05:09:23;;;;;;;27.17;17.70;;;;;;;;;;6264825;28;20107;-73
2023/01/25 05:12:24;;;;;;;27.90;18.10;;;;;;;;;;6261358;28;20109;-70
2023/01/25 05:15:27;;;;;;;26.55;17.00;;;;;;;;;;6262724;28;20061;-72
2023/01/25 05:18:29;;;;;;;28.90;17.98;;;;;;;;;;6267850;28;20161;-75
2023/01/25 05:24:50;;;;;;;26.50;17.48;;;;;;;;;;6266429;28;20053;-74
2023/01/25 05:27:50;;;;;;;29.55;18.52;;;;;;;;;;6266285;28;20237;-74
2023/01/25 05:30:53;;;;;;;27.45;18.30;;;;;;;;;;6267179;28;20095;-74
2023/01/25 05:33:55;;;;;;;28.40;18.42;;;;;;;;;;6265368;28;20049;-74
2023/01/25 05:36:57;;;;;;;28.50;19.27;;;;;;;;;;6265088;28;20049;-75
2023/01/25 05:39:59;;;;;;;31.58;20.40;;;;;;;;;;6265710;28;20675;-73
2023/01/25 05:43:01;;;;;;;31.98;19.13;;;;;;;;;;6264670;28;20332;-74
2023/01/25 05:46:04;;;;;;;30.13;18.83;;;;;;;;;;6264458;28;20284;-74
2023/01/25 05:49:06;;;;;;;29.52;18.13;;;;;;;;;;6265235;28;21877;-75
2023/01/25 05:52:12;;;;;;;29.20;18.10;;;;;;;;;;6262818;28;20111;-71
2023/01/25 05:55:13;;;;;;;30.42;18.83;;;;;;;;;;6263375;28;20102;-73
2023/01/25 05:58:15;;;;;;;31.60;19.13;;;;;;;;;;6266579;28;20138;-74
2023/01/25 06:01:18;;;;;;;34.55;20.23;;;;;;;;;;6266041;28;20120;-74
2023/01/25 06:04:20;;;;;;;31.25;18.88;;;;;;;;;;6265300;28;20133;-73
2023/01/25 06:07:21;;;;;;;29.75;18.15;;;;;;;;;;6264984;28;20056;-75
2023/01/25 06:10:23;;;;;;;39.03;19.83;;;;;;;;;;6264715;28;20052;-73
2023/01/25 06:13:25;;;;;;;32.10;19.10;;;;;;;;;;6266237;28;20134;-72
2023/01/25 06:16:28;;;;;;;30.83;19.48;;;;;;;;;;6265099;28;20134;-72
2023/01/25 06:19:29;;;;;;;31.88;19.95;;;;;;;;;;6267370;28;20504;-72
2023/01/25 06:22:31;;;;;;;32.30;19.25;;;;;;;;;;6264248;28;20549;-73
2023/01/25 06:25:32;;;;;;;29.27;18.45;;;;;;;;;;6265766;28;20052;-72
2023/01/25 06:28:35;;;;;;;36.58;20.05;;;;;;;;;;6263217;28;20049;-70
2023/01/25 06:31:38;;;;;;;32.38;19.63;;;;;;;;;;6265154;28;20053;-73
2023/01/25 06:34:40;;;;;;;33.83;19.70;;;;;;;;;;6263134;28;20049;-73
2023/01/25 06:37:41;;;;;;;32.17;19.00;;;;;;;;;;6265212;28;20394;-72
2023/01/25 06:40:43;;;;;;;31.42;19.48;;;;;;;;;;6263286;28;20164;-73
2023/01/25 06:43:46;;;;;;;30.52;19.13;;;;;;;;;;6265416;28;20060;-74
2023/01/25 06:46:49;;;;;;;34.65;19.50;;;;;;;;;;6265980;28;20045;-73
2023/01/25 06:49:51;;;;;;;34.65;19.67;;;;;;;;;;6263257;28;20080;-72
2023/01/25 06:52:53;;;;;;;36.70;20.52;;;;;;;;;;6266044;28;20229;-72
2023/01/25 06:55:59;;;;;;;35.17;19.52;;;;;;;;;;6263718;28;20083;-73
2023/01/25 06:59:00;;;;;;;32.92;18.73;;;;;;;;;;6260459;28;20084;-73
2023/01/25 07:02:03;;;;;;;32.95;19.08;;;;;;;;;;6266038;28;20048;-73
2023/01/25 07:05:06;;;;;;;31.92;18.27;;;;;;;;;;6262757;28;20061;-72
2023/01/25 07:08:07;;;;;;;32.28;18.38;;;;;;;;;;6265064;28;20331;-73
2023/01/25 07:11:12;;;;;;;36.10;19.17;;;;;;;;;;6264249;28;20488;-72
2023/01/25 07:14:14;;;;;;;34.30;18.70;;;;;;;;;;6263133;28;20064;-72
2023/01/25 07:17:17;;;;;;;36.60;19.75;;;;;;;;;;6265646;28;20053;-72
2023/01/25 07:20:19;;;;;;;36.92;20.73;;;;;;;;;;6264499;28;20044;-72
2023/01/25 07:23:20;;;;;;;39.38;19.52;;;;;;;;;;6263089;28;20057;-73
2023/01/25 07:26:24;;;;;;;44.55;21.45;;;;;;;;;;6262276;28;20328;-72
2023/01/25 07:29:25;;;;;;;37.50;20.73;;;;;;;;;;6262983;28;20053;-72
2023/01/25 07:32:28;;;;;;;36.45;19.83;;;;;;;;;;6263146;28;20325;-71
2023/01/25 07:35:31;;;;;;;37.47;19.42;;;;;;;;;;6262304;28;20063;-73
2023/01/25 07:38:33;;;;;;;44.15;22.15;;;;;;;;;;6260930;28;20051;-72
2023/01/25 07:41:34;;;;;;;44.05;21.08;;;;;;;;;;6263053;28;20099;-70
2023/01/25 07:44:36;;;;;;;38.90;20.25;;;;;;;;;;6264888;28;20059;-69
2023/01/25 07:47:40;;;;;;;38.63;20.27;;;;;;;;;;6262372;28;20061;-73
2023/01/25 07:50:41;;;;;;;42.67;20.90;;;;;;;;;;6262756;28;20091;-72
2023/01/25 07:53:43;;;;;;;37.40;19.42;;;;;;;;;;6259667;28;20151;-72
2023/01/25 07:56:45;;;;;;;40.47;20.20;;;;;;;;;;6265050;28;20053;-73
2023/01/25 07:59:48;;;;;;;46.85;22.10;;;;;;;;;;6259617;28;20233;-73
2023/01/25 08:02:52;;;;;;;36.78;20.42;;;;;;;;;;6261186;28;20072;-71
2023/01/25 08:05:54;;;;;;;42.50;20.42;;;;;;;;;;6261690;28;20098;-72
2023/01/25 08:08:55;;;;;;;45.63;20.63;;;;;;;;;;6263446;28;20053;-73
2023/01/25 08:11:57;;;;;;;46.58;22.25;;;;;;;;;;6260811;28;20096;-73
2023/01/25 08:14:59;;;;;;;42.65;20.83;;;;;;;;;;6262820;28;20059;-73
2023/01/25 08:18:02;;;;;;;37.47;19.85;;;;;;;;;;6263789;28;20064;-72
2023/01/25 08:21:04;;;;;;;41.60;20.65;;;;;;;;;;6261571;28;20465;-72
2023/01/25 08:24:08;;;;;;;42.13;21.60;;;;;;;;;;6260941;28;20061;-72
2023/01/25 08:27:09;;;;;;;43.28;20.85;;;;;;;;;;6261490;28;20076;-73
2023/01/25 08:30:12;;;;;;;40.00;20.38;;;;;;;;;;6261845;28;20360;-73
2023/01/25 08:33:15;;;;;;;42.35;21.42;;;;;;;;;;6262006;28;20099;-71
2023/01/25 08:36:17;;;;;;;41.47;21.90;;;;;;;;;;6262863;28;20099;-72
2023/01/25 08:39:19;;;;;;;41.08;21.52;;;;;;;;;;6261720;28;20099;-72
2023/01/25 08:42:20;;;;;;;40.05;20.02;;;;;;;;;;6260651;28;20154;-72
2023/01/25 08:45:22;;;;;;;46.58;21.85;;;;;;;;;;6262968;28;20336;-73
2023/01/25 08:48:25;;;;;;;41.30;22.80;;;;;;;;;;6265435;28;20263;-72
2023/01/25 08:51:27;;;;;;;43.13;21.60;;;;;;;;;;6263582;28;20064;-73
2023/01/25 08:54:29;;;;;;;45.15;21.38;;;;;;;;;;6265443;28;20056;-73
2023/01/25 08:57:31;;;;;;;36.22;20.10;;;;;;;;;;6267253;28;20380;-73
2023/01/25 09:00:32;;;;;;;37.92;20.13;;;;;;;;;;6269060;28;20045;-74
2023/01/25 09:03:37;;;;;;;35.40;18.95;;;;;;;;;;6266264;28;20045;-73
2023/01/25 09:06:39;;;;;;;33.83;18.63;;;;;;;;;;6268301;28;20382;-73
2023/01/25 09:09:41;;;;;;;34.83;19.33;;;;;;;;;;6266845;28;21562;-73
2023/01/25 09:12:42;;;;;;;31.50;18.58;;;;;;;;;;6265811;28;20063;-70
2023/01/25 09:15:44;;;;;;;32.65;18.77;;;;;;;;;;6268387;28;20049;-73
2023/01/25 09:18:47;;;;;;;32.72;17.95;;;;;;;;;;6270806;28;20053;-73
2023/01/25 09:21:49;;;;;;;33.75;18.85;;;;;;;;;;6268033;28;20057;-73
2023/01/25 09:24:52;;;;;;;31.90;17.85;;;;;;;;;;6265432;28;20052;-73
2023/01/25 09:27:54;;;;;;;37.03;18.13;;;;;;;;;;6266477;28;20083;-74
2023/01/25 09:30:56;;;;;;;32.40;18.73;;;;;;;;;;6269156;28;20054;-73
2023/01/25 09:33:59;;;;;;;32.28;18.50;;;;;;;;;;6267342;28;20056;-75
2023/01/25 09:37:00;;;;;;;29.30;17.67;;;;;;;;;;6265102;28;20049;-72
2023/01/25 09:40:04;;;;;;;31.77;18.58;;;;;;;;;;6266962;28;20081;-74
2023/01/25 09:43:09;;;;;;;27.27;16.75;;;;;;;;;;6265989;28;20115;-74
2023/01/25 09:46:18;;;;;;;29.33;17.30;;;;;;;;;;6264371;28;20049;-73
2023/01/25 09:49:31;;;;;;;30.05;18.40;;;;;;;;;;6264686;28;20208;-73
2023/01/25 09:52:52;;;;;;;28.05;17.05;;;;;;;;;;6262754;28;20061;-73
2023/01/25 09:55:57;;;;;;;33.13;18.60;;;;;;;;;;6263124;28;20053;-72
2023/01/25 09:59:03;;;;;;;30.58;18.10;;;;;;;;;;6265253;28;20091;-73
2023/01/25 10:02:13;;;;;;;29.65;17.85;;;;;;;;;;6263823;28;20322;-72
2023/01/25 10:05:19;;;;;;;29.70;17.75;;;;;;;;;;6263949;28;20116;-73
2023/01/25 10:08:27;;;;;;;31.60;18.23;;;;;;;;;;6264596;28;20290;-73
2023/01/25 10:11:30;;;;;;;31.75;18.17;;;;;;;;;;6264941;28;20138;-72
2023/01/25 10:14:34;;;;;;;29.42;17.73;;;;;;;;;;6269343;28;20340;-72
2023/01/25 10:17:38;;;;;;;29.33;17.55;;;;;;;;;;6262813;28;20068;-72
2023/01/25 10:20:47;;;;;;;30.25;17.52;;;;;;;;;;6264916;28;20060;-73
2023/01/25 10:24:12;;;;;;;31.02;17.17;;;;;;;;;;6265838;28;20053;-73
2023/01/25 10:27:23;;;;;;;29.73;18.02;;;;;;;;;;6263649;28;20068;-74
2023/01/25 10:30:27;;;;;;;31.95;18.42;;;;;;;;;;6264757;28;20138;-72
2023/01/25 10:33:30;;;;;;;29.10;19.00;;;;;;;;;;6266522;28;20136;-71
2023/01/25 10:36:33;;;;;;;25.30;17.75;;;;;;;;;;6265835;28;20049;-73
2023/01/25 10:39:39;;;;;;;29.15;18.33;;;;;;;;;;6264410;28;20103;-72
2023/01/25 10:42:44;;;;;;;27.85;18.10;;;;;;;;;;6264722;28;20049;-72
2023/01/25 10:45:47;;;;;;;28.70;18.05;;;;;;;;;;6265611;28;20053;-72
2023/01/25 10:48:48;;;;;;;26.98;18.88;;;;;;;;;;6264687;28;20048;-72
2023/01/25 10:51:51;;;;;;;28.92;18.60;;;;;;;;;;6263509;28;20060;-72
2023/01/25 10:55:11;;;;;;;32.20;18.33;;;;;;;;;;6265148;28;20049;-72
2023/01/25 10:58:30;;;;;;;30.83;19.02;;;;;;;;;;6264099;28;20102;-73
2023/01/25 11:01:32;;;;;;;28.40;18.45;;;;;;;;;;6262511;28;20057;-76
2023/01/25 11:04:37;;;;;;;33.20;19.60;;;;;;;;;;6262124;28;20091;-76
2023/01/25 11:07:40;;;;;;;28.02;17.17;;;;;;;;;;6262752;28;20057;-73
2023/01/25 11:10:45;;;;;;;27.77;16.02;;;;;;;;;;6260636;28;20222;-73
2023/01/25 11:13:47;;;;;;;24.17;15.30;;;;;;;;;;6263151;28;20057;-72
2023/01/25 11:16:49;;;;;;;20.27;12.60;;;;;;;;;;6267289;28;20045;-72
2023/01/25 11:20:06;;;;;;;22.58;13.73;;;;;;;;;;6265078;28;20072;-78
2023/01/25 11:23:22;;;;;;;25.38;14.48;;;;;;;;;;6265061;28;20057;-72
2023/01/25 11:26:24;;;;;;;24.60;14.98;;;;;;;;;;6259924;28;20060;-71
2023/01/25 11:29:29;;;;;;;21.27;12.68;;;;;;;;;;6261912;28;20053;-72
2023/01/25 11:32:32;;;;;;;24.35;13.60;;;;;;;;;;6263067;28;20045;-72
2023/01/25 11:35:34;;;;;;;24.38;13.75;;;;;;;;;;6262777;28;20049;-72
2023/01/25 11:38:38;;;;;;;21.27;13.43;;;;;;;;;;6263387;28;20099;-72
2023/01/25 11:41:49;;;;;;;22.15;13.10;;;;;;;;;;6262558;28;20079;-72
2023/01/25 11:45:16;;;;;;;61.70;34.83;;;;;;;;;;6261730;28;20072;-73
2023/01/25 11:48:55;;;;;;;57.08;30.75;;;;;;;;;;6260642;28;20049;-73
2023/01/25 11:52:04;;;;;;;22.05;13.65;;;;;;;;;;6254709;28;20053;-74
2023/01/25 11:55:22;;;;;;;21.38;12.95;;;;;;;;;;6263196;28;20054;-73
2023/01/25 11:58:39;;;;;;;22.20;13.32;;;;;;;;;;6262137;28;20088;-74
2023/01/25 12:01:56;;;;;;;17.38;10.70;;;;;;;;;;6262155;28;20053;-73
2023/01/25 12:05:16;;;;;;;21.40;11.98;;;;;;;;;;6263137;28;20051;-75
2023/01/25 12:08:46;;;;;;;16.17;9.52;;;;;;;;;;6264609;28;20188;-74
2023/01/25 12:12:10;;;;;;;16.55;9.77;;;;;;;;;;6249350;28;20079;-70
2023/01/25 12:15:29;;;;;;;17.17;9.50;;;;;;;;;;6263471;28;20057;-72
2023/01/25 12:18:48;;;;;;;19.35;10.02;;;;;;;;;;6263290;28;20053;-72
2023/01/25 12:22:06;;;;;;;19.13;10.73;;;;;;;;;;6261837;28;20057;-72
2023/01/25 12:25:17;;;;;;;22.73;10.65;;;;;;;;;;6262602;28;20049;-71
2023/01/25 12:28:23;;;;;;;19.73;10.02;;;;;;;;;;6265650;28;20051;-70
2023/01/25 12:31:27;;;;;;;18.52;10.13;;;;;;;;;;6269672;28;20454;-72
2023/01/25 12:34:34;;;;;;;20.48;11.73;;;;;;;;;;6267609;28;20055;-71
2023/01/25 12:37:37;;;;;;;21.58;11.93;;;;;;;;;;6266265;28;20052;-71
2023/01/25 12:40:47;;;;;;;19.10;10.87;;;;;;;;;;6268477;28;20151;-71
2023/01/25 12:43:54;;;;;;;16.45;10.02;;;;;;;;;;6267378;28;20044;-71
2023/01/25 12:47:01;;;;;;;17.77;9.05;;;;;;;;;;6265031;28;20279;-72
2023/01/25 12:50:12;;;;;;;18.42;10.18;;;;;;;;;;6266596;28;20324;-71
2023/01/25 12:53:19;;;;;;;15.15;9.52;;;;;;;;;;6268245;28;20041;-72
2023/01/25 12:56:31;;;;;;;18.30;10.07;;;;;;;;;;6269428;28;20064;-71
2023/01/25 12:59:39;;;;;;;18.20;10.60;;;;;;;;;;6265479;28;20057;-71
2023/01/25 13:02:50;;;;;;;18.17;10.25;;;;;;;;;;6265610;28;20037;-72
2023/01/25 13:05:54;;;;;;;18.73;9.75;;;;;;;;;;6265652;28;20108;-75
2023/01/25 13:09:00;;;;;;;18.35;10.10;;;;;;;;;;6268880;28;20049;-75
2023/01/25 13:12:03;;;;;;;17.92;10.18;;;;;;;;;;6267346;28;20036;-76
2023/01/25 13:15:34;;;;;;;15.52;9.80;;;;;;;;;;6267715;28;20072;-77
2023/01/25 13:18:39;;;;;;;17.58;10.30;;;;;;;;;;6264953;28;20045;-72
2023/01/25 13:21:44;;;;;;;16.92;9.93;;;;;;;;;;6264075;28;20042;-73
2023/01/25 13:25:10;;;;;;;15.82;9.77;;;;;;;;;;6267583;28;20321;-75
2023/01/25 13:28:42;;;;;;;19.75;10.75;;;;;;;;;;6266514;28;20129;-73
2023/01/25 13:31:51;;;;;;;17.60;9.88;;;;;;;;;;6187691;28;20105;-73
2023/01/25 13:34:57;;;;;;;16.17;9.40;;;;;;;;;;6190073;28;20065;-76
2023/01/25 13:38:03;;;;;;;14.35;8.90;;;;;;;;;;6190160;28;20348;-71
2023/01/25 13:41:10;;;;;;;18.73;10.23;;;;;;;;;;6191249;28;20051;-72
2023/01/25 13:44:20;;;;;;;19.77;11.38;;;;;;;;;;6190417;28;20058;-73
2023/01/25 13:47:25;;;;;;;17.83;10.40;;;;;;;;;;6191095;28;20052;-73
2023/01/25 13:50:29;;;;;;;17.15;9.90;;;;;;;;;;6191867;28;20535;-71
2023/01/25 13:53:34;;;;;;;;;;;;;;;;;;6190326;28;20238;-71
2023/01/25 13:56:36;;;;;;;24.80;10.85;;;;;;;;;;6191761;28;19926;-71
2023/01/25 13:59:37;;;;;;;19.63;11.13;;;;;;;;;;6191623;28;20118;-72
2023/01/25 14:02:42;;;;;;;19.42;11.00;;;;;;;;;;6190819;28;20055;-72
2023/01/25 14:05:49;;;;;;;19.55;10.85;;;;;;;;;;6230415;28;20050;-73
2023/01/25 14:08:53;;;;;;;19.52;11.60;;;;;;;;;;6267826;28;20230;-73
2023/01/25 14:11:56;;;;;;;21.00;12.25;;;;;;;;;;6263966;28;20060;-73
2023/01/25 14:15:11;;;;;;;18.92;11.60;;;;;;;;;;6266056;28;20049;-73
2023/01/25 14:18:16;;;;;;;22.33;12.30;;;;;;;;;;6265436;28;20049;-73
2023/01/25 14:21:20;;;;;;;68.78;35.80;;;;;;;;;;6271620;28;20336;-75
2023/01/25 14:24:21;;;;;;;47.97;26.08;;;;;;;;;;6266844;28;20053;-75
2023/01/25 14:27:23;;;;;;;49.85;26.77;;;;;;;;;;6265402;28;20120;-74
2023/01/25 14:30:26;;;;;;;71.50;36.28;;;;;;;;;;6267500;28;20053;-75
2023/01/25 14:33:31;;;;;;;53.17;28.97;;;;;;;;;;6266950;28;20331;-74
2023/01/25 14:36:34;;;;;;;50.92;28.38;;;;;;;;;;6263618;28;20042;-74
2023/01/25 14:39:35;;;;;;;72.07;35.63;;;;;;;;;;6263904;28;20057;-74
2023/01/25 14:42:37;;;;;;;26.60;14.38;;;;;;;;;;6263244;28;20087;-74
2023/01/25 14:45:39;;;;;;;20.48;13.23;;;;;;;;;;6264856;28;20063;-74
2023/01/25 14:48:43;;;;;;;24.33;15.20;;;;;;;;;;6263427;28;20095;-74
2023/01/25 14:51:47;;;;;;;43.75;27.13;;;;;;;;;;6264564;28;20434;-74
2023/01/25 14:54:51;;;;;;;38.97;19.80;;;;;;;;;;6263595;28;20045;-75
2023/01/25 14:57:53;;;;;;;24.02;13.88;;;;;;;;;;6265328;28;20048;-70
2023/01/25 15:00:56;;;;;;;23.42;14.45;;;;;;;;;;6264020;28;20107;-73
2023/01/25 15:03:59;;;;;;;22.10;13.40;;;;;;;;;;6261585;28;20166;-73
2023/01/25 15:07:00;;;;;;;23.50;13.48;;;;;;;;;;6266891;28;20049;-72
2023/01/25 15:10:04;;;;;;;23.70;13.32;;;;;;;;;;6263155;28;20056;-73
2023/01/25 15:13:21;;;;;;;23.23;15.10;;;;;;;;;;6263180;28;20061;-73
2023/01/25 15:16:32;;;;;;;22.30;13.00;;;;;;;;;;6262165;28;20052;-73
2023/01/25 15:19:35;;;;;;;22.73;13.80;;;;;;;;;;6262692;28;20052;-73
2023/01/25 15:22:37;;;;;;;28.67;13.70;;;;;;;;;;6261465;28;20064;-73
2023/01/25 15:25:49;;;;;;;20.75;13.55;;;;;;;;;;6262595;28;20056;-73
2023/01/25 15:28:52;;;;;;;23.98;13.43;;;;;;;;;;6261397;28;20045;-74
2023/01/25 15:31:55;;;;;;;24.45;13.60;;;;;;;;;;6262403;28;20060;-74
2023/01/25 15:34:58;;;;;;;25.85;12.88;;;;;;;;;;6263119;28;20053;-74
2023/01/25 15:38:00;;;;;;;22.42;13.05;;;;;;;;;;6264273;28;20049;-74
2023/01/25 15:41:01;;;;;;;21.65;13.13;;;;;;;;;;6262486;28;20052;-73
2023/01/25 15:44:03;;;;;;;26.10;13.95;;;;;;;;;;6263781;28;20345;-74
2023/01/25 15:47:05;;;;;;;23.92;13.95;;;;;;;;;;6261940;28;20099;-73
2023/01/25 15:50:18;;;;;;;22.85;14.43;;;;;;;;;;6259943;28;20057;-74
2023/01/25 15:53:20;;;;;;;23.98;13.75;;;;;;;;;;6263631;28;20049;-74
2023/01/25 15:56:23;;;;;;;24.08;14.00;;;;;;;;;;6265025;28;20060;-73
2023/01/25 15:59:25;;;;;;;22.63;13.60;;;;;;;;;;6263465;28;20321;-75
2023/01/25 16:02:27;;;;;;;25.77;14.32;;;;;;;;;;6262053;28;20471;-74
2023/01/25 16:05:30;;;;;;;20.58;12.60;;;;;;;;;;6261585;28;20060;-72
2023/01/25 16:08:32;;;;;;;106.57;62.05;;;;;;;;;;6264678;28;20351;-74
2023/01/25 16:11:33;;;;;;;83.50;47.60;;;;;;;;;;6265778;28;20049;-73
2023/01/25 16:14:35;;;;;;;41.53;22.45;;;;;;;;;;6262545;28;20045;-71
2023/01/25 16:17:37;;;;;;;22.20;12.82;;;;;;;;;;6262808;28;20060;-73
2023/01/25 16:20:40;;;;;;;20.92;11.35;;;;;;;;;;6259843;28;20130;-74
2023/01/25 16:23:42;;;;;;;20.20;10.25;;;;;;;;;;6260730;28;20660;-73
2023/01/25 16:26:46;;;;;;;19.58;10.40;;;;;;;;;;6265010;28;20277;-73
2023/01/25 16:29:47;;;;;;;16.75;10.40;;;;;;;;;;6262658;28;20312;-74
2023/01/25 16:32:50;;;;;;;17.17;9.90;;;;;;;;;;6261637;28;20107;-74
2023/01/25 16:36:04;;;;;;;16.33;10.07;;;;;;;;;;6261522;28;20095;-74
2023/01/25 16:39:09;;;;;;;18.60;10.75;;;;;;;;;;6260833;28;20065;-73
2023/01/25 16:42:10;;;;;;;20.38;11.35;;;;;;;;;;6260581;28;20076;-73
2023/01/25 16:45:14;;;;;;;18.70;10.50;;;;;;;;;;6262218;28;20046;-74
2023/01/25 16:48:15;;;;;;;18.23;9.20;;;;;;;;;;6262084;28;20072;-74
2023/01/25 16:51:20;;;;;;;18.00;10.32;;;;;;;;;;6260168;28;20045;-73
2023/01/25 16:54:23;;;;;;;17.40;10.50;;;;;;;;;;6262669;28;20280;-73
2023/01/25 16:57:25;;;;;;;18.15;10.10;;;;;;;;;;6261710;28;20106;-73
2023/01/25 17:00:26;;;;;;;22.70;10.05;;;;;;;;;;6261322;28;20289;-74
2023/01/25 17:03:28;;;;;;;17.35;10.52;;;;;;;;;;6260820;28;20060;-73
2023/01/25 17:06:32;;;;;;;18.65;11.05;;;;;;;;;;6258934;28;20049;-74
2023/01/25 17:09:34;;;;;;;18.88;9.63;;;;;;;;;;6261930;28;20049;-73
2023/01/25 17:12:35;;;;;;;15.13;9.35;;;;;;;;;;6262861;28;20045;-72
2023/01/25 17:15:37;;;;;;;20.33;10.10;;;;;;;;;;6264392;28;20324;-72
2023/01/25 17:18:39;;;;;;;21.05;10.63;;;;;;;;;;6266803;28;20071;-74
2023/01/25 17:21:42;;;;;;;18.85;10.35;;;;;;;;;;6266513;28;20317;-74
2023/01/25 17:24:43;;;;;;;19.08;10.57;;;;;;;;;;6266981;28;20309;-74
2023/01/25 17:27:45;;;;;;;22.42;11.45;;;;;;;;;;6267351;28;20100;-73
2023/01/25 17:30:49;;;;;;;16.35;9.90;;;;;;;;;;6266928;28;20178;-74
2023/01/25 17:33:51;;;;;;;18.60;9.70;;;;;;;;;;6267485;28;20245;-73
2023/01/25 17:36:54;;;;;;;21.63;11.10;;;;;;;;;;6266738;28;20079;-73
2023/01/25 17:39:56;;;;;;;22.52;10.75;;;;;;;;;;6266743;28;20056;-74
2023/01/25 17:42:57;;;;;;;20.88;10.23;;;;;;;;;;6270895;28;20324;-73
2023/01/25 17:45:59;;;;;;;16.35;10.10;;;;;;;;;;6267832;28;20110;-75
2023/01/25 17:49:01;;;;;;;21.13;11.45;;;;;;;;;;6268737;28;20336;-74
2023/01/25 17:52:04;;;;;;;20.15;10.73;;;;;;;;;;6265309;28;20063;-74
2023/01/25 17:55:08;;;;;;;23.95;11.23;;;;;;;;;;6266860;28;20050;-73
2023/01/25 17:58:09;;;;;;;21.77;11.38;;;;;;;;;;6271543;28;20313;-72